sensor_id;sensor_type;location;lat;lon;timestamp;pressure;altitude;pressure_sealevel;temperature
67758;BMP180;54562;47.620;18.786;2022-12-07T00:02:31;98308.00;;;1.70
67758;BMP180;54562;47.620;18.786;2022-12-07T00:05:36;98301.20;;;1.70
67758;BMP180;54562;47.620;18.786;2022-12-07T00:08:41;98297.80;;;1.70
67758;BMP180;54562;47.620;18.786;2022-12-07T00:11:49;98296.00;;;1.70
67758;BMP180;54562;47.620;18.786;2022-12-07T00:14:54;98291.80;;;1.70
67758;BMP180;54562;47.620;18.786;2022-12-07T00:17:59;98289.40;;;1.70
67758;BMP180;54562;47.620;18.786;2022-12-07T00:21:06;98279.80;;;1.70
67758;BMP180;54562;47.620;18.786;2022-12-07T00:24:12;98274.80;;;1.70
67758;BMP180;54562;47.620;18.786;2022-12-07T00:27:17;98279.40;;;1.62
67758;BMP180;54562;47.620;18.786;2022-12-07T00:30:22;98268.60;;;1.64
67758;BMP180;54562;47.620;18.786;2022-12-07T00:33:28;98275.40;;;1.60
67758;BMP180;54562;47.620;18.786;2022-12-07T00:36:33;98273.80;;;1.60
67758;BMP180;54562;47.620;18.786;2022-12-07T00:39:37;98283.00;;;1.60
67758;BMP180;54562;47.620;18.786;2022-12-07T00:42:42;98285.80;;;1.60
67758;BMP180;54562;47.620;18.786;2022-12-07T00:45:47;98291.60;;;1.50
67758;BMP180;54562;47.620;18.786;2022-12-07T00:48:53;98294.80;;;1.50
67758;BMP180;54562;47.620;18.786;2022-12-07T00:51:58;98292.80;;;1.46
67758;BMP180;54562;47.620;18.786;2022-12-07T00:55:05;98294.40;;;1.40
67758;BMP180;54562;47.620;18.786;2022-12-07T00:58:10;98285.60;;;1.32
67758;BMP180;54562;47.620;18.786;2022-12-07T01:01:14;98287.00;;;1.30
67758;BMP180;54562;47.620;18.786;2022-12-07T01:04:20;98284.20;;;1.20
67758;BMP180;54562;47.620;18.786;2022-12-07T01:07:25;98275.20;;;1.20
67758;BMP180;54562;47.620;18.786;2022-12-07T01:10:30;98274.00;;;1.10
67758;BMP180;54562;47.620;18.786;2022-12-07T01:13:36;98271.40;;;1.10
67758;BMP180;54562;47.620;18.786;2022-12-07T01:16:41;98279.40;;;1.10
67758;BMP180;54562;47.620;18.786;2022-12-07T01:19:46;98276.80;;;1.10
67758;BMP180;54562;47.620;18.786;2022-12-07T01:22:51;98275.60;;;1.10
67758;BMP180;54562;47.620;18.786;2022-12-07T01:25:58;98280.60;;;1.02
67758;BMP180;54562;47.620;18.786;2022-12-07T01:29:04;98282.40;;;1.00
67758;BMP180;54562;47.620;18.786;2022-12-07T01:32:08;98285.40;;;0.90
67758;BMP180;54562;47.620;18.786;2022-12-07T01:35:13;98283.20;;;0.90
67758;BMP180;54562;47.620;18.786;2022-12-07T01:38:18;98279.60;;;0.90
67758;BMP180;54562;47.620;18.786;2022-12-07T01:41:24;98276.00;;;0.92
67758;BMP180;54562;47.620;18.786;2022-12-07T01:44:31;98277.20;;;1.00
67758;BMP180;54562;47.620;18.786;2022-12-07T01:47:37;98273.20;;;1.00
67758;BMP180;54562;47.620;18.786;2022-12-07T01:50:44;98272.00;;;1.10
67758;BMP180;54562;47.620;18.786;2022-12-07T01:53:54;98270.20;;;1.10
67758;BMP180;54562;47.620;18.786;2022-12-07T01:57:00;98261.60;;;1.14
67758;BMP180;54562;47.620;18.786;2022-12-07T02:00:09;98262.60;;;1.20
67758;BMP180;54562;47.620;18.786;2022-12-07T02:03:19;98257.80;;;1.20
67758;BMP180;54562;47.620;18.786;2022-12-07T02:06:26;98258.40;;;1.28
67758;BMP180;54562;47.620;18.786;2022-12-07T02:09:31;98260.80;;;1.30
67758;BMP180;54562;47.620;18.786;2022-12-07T02:12:36;98257.40;;;1.30
67758;BMP180;54562;47.620;18.786;2022-12-07T02:16:20;98260.60;;;1.40
67758;BMP180;54562;47.620;18.786;2022-12-07T02:20:02;98256.00;;;1.40
67758;BMP180;54562;47.620;18.786;2022-12-07T02:23:37;98249.80;;;1.50
67758;BMP180;54562;47.620;18.786;2022-12-07T02:27:29;98252.40;;;1.50
67758;BMP180;54562;47.620;18.786;2022-12-07T02:30:46;98244.80;;;1.58
67758;BMP180;54562;47.620;18.786;2022-12-07T02:34:01;98246.20;;;1.60
67758;BMP180;54562;47.620;18.786;2022-12-07T02:37:20;98246.40;;;1.60
67758;BMP180;54562;47.620;18.786;2022-12-07T02:40:33;98247.40;;;1.60
67758;BMP180;54562;47.620;18.786;2022-12-07T02:43:43;98246.80;;;1.60
67758;BMP180;54562;47.620;18.786;2022-12-07T02:46:55;98245.00;;;1.60
67758;BMP180;54562;47.620;18.786;2022-12-07T02:50:03;98236.80;;;1.60
67758;BMP180;54562;47.620;18.786;2022-12-07T02:53:34;98237.40;;;1.58
67758;BMP180;54562;47.620;18.786;2022-12-07T02:56:47;98236.60;;;1.60
67758;BMP180;54562;47.620;18.786;2022-12-07T03:00:03;98238.40;;;1.60
67758;BMP180;54562;47.620;18.786;2022-12-07T03:03:14;98247.80;;;1.60
67758;BMP180;54562;47.620;18.786;2022-12-07T03:06:24;98231.60;;;1.60
67758;BMP180;54562;47.620;18.786;2022-12-07T03:09:41;98221.00;;;1.66
67758;BMP180;54562;47.620;18.786;2022-12-07T03:13:04;98227.00;;;1.70
67758;BMP180;54562;47.620;18.786;2022-12-07T03:16:15;98230.80;;;1.70
67758;BMP180;54562;47.620;18.786;2022-12-07T03:19:22;98243.00;;;1.76
67758;BMP180;54562;47.620;18.786;2022-12-07T03:22:32;98244.40;;;1.80
67758;BMP180;54562;47.620;18.786;2022-12-07T03:25:40;98254.60;;;1.80
67758;BMP180;54562;47.620;18.786;2022-12-07T03:28:51;98261.00;;;1.80
67758;BMP180;54562;47.620;18.786;2022-12-07T03:32:05;98259.20;;;1.80
67758;BMP180;54562;47.620;18.786;2022-12-07T03:35:16;98263.80;;;1.78
67758;BMP180;54562;47.620;18.786;2022-12-07T03:38:27;98260.00;;;1.72
67758;BMP180;54562;47.620;18.786;2022-12-07T03:41:37;98250.20;;;1.74
67758;BMP180;54562;47.620;18.786;2022-12-07T03:44:49;98245.20;;;1.80
67758;BMP180;54562;47.620;18.786;2022-12-07T03:48:04;98250.20;;;1.80
67758;BMP180;54562;47.620;18.786;2022-12-07T03:51:21;98250.60;;;1.80
67758;BMP180;54562;47.620;18.786;2022-12-07T03:54:33;98252.80;;;1.80
67758;BMP180;54562;47.620;18.786;2022-12-07T03:57:42;98249.20;;;1.88
67758;BMP180;54562;47.620;18.786;2022-12-07T04:00:49;98253.80;;;1.90
67758;BMP180;54562;47.620;18.786;2022-12-07T04:03:55;98248.00;;;1.90
67758;BMP180;54562;47.620;18.786;2022-12-07T04:07:00;98254.00;;;1.90
67758;BMP180;54562;47.620;18.786;2022-12-07T04:10:07;98255.40;;;1.90
67758;BMP180;54562;47.620;18.786;2022-12-07T04:13:12;98249.60;;;1.90
67758;BMP180;54562;47.620;18.786;2022-12-07T04:16:16;98244.60;;;1.96
67758;BMP180;54562;47.620;18.786;2022-12-07T04:19:24;98241.20;;;2.00
67758;BMP180;54562;47.620;18.786;2022-12-07T04:22:29;98240.40;;;2.00
67758;BMP180;54562;47.620;18.786;2022-12-07T04:25:34;98240.20;;;2.00
67758;BMP180;54562;47.620;18.786;2022-12-07T04:28:38;98235.80;;;2.02
67758;BMP180;54562;47.620;18.786;2022-12-07T04:31:44;98234.80;;;2.04
67758;BMP180;54562;47.620;18.786;2022-12-07T04:34:49;98234.00;;;2.06
67758;BMP180;54562;47.620;18.786;2022-12-07T04:37:59;98228.60;;;2.02
67758;BMP180;54562;47.620;18.786;2022-12-07T04:41:07;98235.40;;;2.00
67758;BMP180;54562;47.620;18.786;2022-12-07T04:44:15;98230.00;;;2.00
67758;BMP180;54562;47.620;18.786;2022-12-07T04:47:21;98226.40;;;2.00
67758;BMP180;54562;47.620;18.786;2022-12-07T04:50:26;98229.00;;;2.00
67758;BMP180;54562;47.620;18.786;2022-12-07T04:53:31;98226.00;;;2.00
67758;BMP180;54562;47.620;18.786;2022-12-07T04:56:36;98232.20;;;2.00
67758;BMP180;54562;47.620;18.786;2022-12-07T04:59:41;98231.00;;;2.00
67758;BMP180;54562;47.620;18.786;2022-12-07T05:02:49;98230.80;;;2.00
67758;BMP180;54562;47.620;18.786;2022-12-07T05:05:54;98233.40;;;1.90
67758;BMP180;54562;47.620;18.786;2022-12-07T05:08:59;98230.00;;;1.90
67758;BMP180;54562;47.620;18.786;2022-12-07T05:12:04;98232.80;;;1.80
67758;BMP180;54562;47.620;18.786;2022-12-07T05:15:10;98232.40;;;1.80
67758;BMP180;54562;47.620;18.786;2022-12-07T05:18:15;98231.40;;;1.74
67758;BMP180;54562;47.620;18.786;2022-12-07T05:21:20;98236.20;;;1.70
67758;BMP180;54562;47.620;18.786;2022-12-07T05:24:25;98235.20;;;1.60
67758;BMP180;54562;47.620;18.786;2022-12-07T05:27:30;98234.00;;;1.50
67758;BMP180;54562;47.620;18.786;2022-12-07T05:30:35;98238.80;;;1.46
67758;BMP180;54562;47.620;18.786;2022-12-07T05:33:40;98237.20;;;1.40
67758;BMP180;54562;47.620;18.786;2022-12-07T05:36:44;98240.20;;;1.40
67758;BMP180;54562;47.620;18.786;2022-12-07T05:39:49;98241.80;;;1.40
67758;BMP180;54562;47.620;18.786;2022-12-07T05:42:55;98241.20;;;1.40
67758;BMP180;54562;47.620;18.786;2022-12-07T05:46:07;98242.60;;;1.40
67758;BMP180;54562;47.620;18.786;2022-12-07T05:49:13;98237.20;;;1.40
67758;BMP180;54562;47.620;18.786;2022-12-07T05:52:17;98238.00;;;1.40
67758;BMP180;54562;47.620;18.786;2022-12-07T05:55:22;98239.60;;;1.40
67758;BMP180;54562;47.620;18.786;2022-12-07T05:58:27;98243.60;;;1.42
67758;BMP180;54562;47.620;18.786;2022-12-07T06:01:51;98243.40;;;1.50
67758;BMP180;54562;47.620;18.786;2022-12-07T06:04:56;98246.20;;;1.50
67758;BMP180;54562;47.620;18.786;2022-12-07T06:08:01;98245.00;;;1.50
67758;BMP180;54562;47.620;18.786;2022-12-07T06:11:10;98245.00;;;1.50
67758;BMP180;54562;47.620;18.786;2022-12-07T06:14:34;98242.40;;;1.58
67758;BMP180;54562;47.620;18.786;2022-12-07T06:17:38;98240.00;;;1.60
67758;BMP180;54562;47.620;18.786;2022-12-07T06:20:44;98250.20;;;1.60
67758;BMP180;54562;47.620;18.786;2022-12-07T06:23:49;98254.80;;;1.70
67758;BMP180;54562;47.620;18.786;2022-12-07T06:26:54;98252.00;;;1.70
67758;BMP180;54562;47.620;18.786;2022-12-07T06:29:59;98249.60;;;1.70
67758;BMP180;54562;47.620;18.786;2022-12-07T06:33:09;98257.00;;;1.72
67758;BMP180;54562;47.620;18.786;2022-12-07T06:36:14;98260.40;;;1.80
67758;BMP180;54562;47.620;18.786;2022-12-07T06:39:24;98260.20;;;1.80
67758;BMP180;54562;47.620;18.786;2022-12-07T06:42:29;98265.60;;;1.80
67758;BMP180;54562;47.620;18.786;2022-12-07T06:45:34;98260.60;;;1.90
67758;BMP180;54562;47.620;18.786;2022-12-07T06:48:39;98266.20;;;1.90
67758;BMP180;54562;47.620;18.786;2022-12-07T06:51:44;98264.80;;;1.90
67758;BMP180;54562;47.620;18.786;2022-12-07T06:54:48;98266.40;;;2.00
67758;BMP180;54562;47.620;18.786;2022-12-07T06:57:54;98263.20;;;2.00
67758;BMP180;54562;47.620;18.786;2022-12-07T07:01:00;98263.40;;;2.04
67758;BMP180;54562;47.620;18.786;2022-12-07T07:04:05;98263.20;;;2.10
67758;BMP180;54562;47.620;18.786;2022-12-07T07:07:10;98262.60;;;2.10
67758;BMP180;54562;47.620;18.786;2022-12-07T07:10:15;98265.40;;;2.18
67758;BMP180;54562;47.620;18.786;2022-12-07T07:13:20;98258.00;;;2.20
67758;BMP180;54562;47.620;18.786;2022-12-07T07:16:26;98262.40;;;2.20
67758;BMP180;54562;47.620;18.786;2022-12-07T07:19:31;98263.40;;;2.30
67758;BMP180;54562;47.620;18.786;2022-12-07T07:22:35;98268.20;;;2.30
67758;BMP180;54562;47.620;18.786;2022-12-07T07:25:40;98268.40;;;2.34
67758;BMP180;54562;47.620;18.786;2022-12-07T07:28:45;98270.20;;;2.40
67758;BMP180;54562;47.620;18.786;2022-12-07T07:31:49;98271.40;;;2.40
67758;BMP180;54562;47.620;18.786;2022-12-07T07:34:54;98263.20;;;2.50
67758;BMP180;54562;47.620;18.786;2022-12-07T07:38:00;98269.80;;;2.50
67758;BMP180;54562;47.620;18.786;2022-12-07T07:41:05;98268.00;;;2.60
67758;BMP180;54562;47.620;18.786;2022-12-07T07:44:11;98266.20;;;2.60
67758;BMP180;54562;47.620;18.786;2022-12-07T07:47:16;98269.20;;;2.68
67758;BMP180;54562;47.620;18.786;2022-12-07T07:50:22;98274.00;;;2.70
67758;BMP180;54562;47.620;18.786;2022-12-07T07:53:27;98272.20;;;2.74
67758;BMP180;54562;47.620;18.786;2022-12-07T07:56:31;98268.40;;;2.80
67758;BMP180;54562;47.620;18.786;2022-12-07T07:59:37;98260.80;;;2.84
67758;BMP180;54562;47.620;18.786;2022-12-07T08:02:45;98269.20;;;2.90
67758;BMP180;54562;47.620;18.786;2022-12-07T08:05:52;98269.20;;;2.92
67758;BMP180;54562;47.620;18.786;2022-12-07T08:08:57;98285.00;;;3.00
67758;BMP180;54562;47.620;18.786;2022-12-07T08:12:03;98283.40;;;3.10
67758;BMP180;54562;47.620;18.786;2022-12-07T08:15:10;98287.80;;;3.18
67758;BMP180;54562;47.620;18.786;2022-12-07T08:18:16;98293.40;;;3.20
67758;BMP180;54562;47.620;18.786;2022-12-07T08:21:20;98299.80;;;3.30
67758;BMP180;54562;47.620;18.786;2022-12-07T08:24:26;98310.60;;;3.34
67758;BMP180;54562;47.620;18.786;2022-12-07T08:27:30;98306.80;;;3.40
67758;BMP180;54562;47.620;18.786;2022-12-07T08:30:36;98313.60;;;3.46
67758;BMP180;54562;47.620;18.786;2022-12-07T08:33:42;98313.40;;;3.50
67758;BMP180;54562;47.620;18.786;2022-12-07T08:36:47;98313.00;;;3.60
67758;BMP180;54562;47.620;18.786;2022-12-07T08:39:52;98305.40;;;3.80
67758;BMP180;54562;47.620;18.786;2022-12-07T08:42:58;98304.00;;;3.88
67758;BMP180;54562;47.620;18.786;2022-12-07T08:46:10;98302.80;;;3.90
67758;BMP180;54562;47.620;18.786;2022-12-07T08:49:20;98306.60;;;3.96
67758;BMP180;54562;47.620;18.786;2022-12-07T08:52:27;98307.20;;;4.00
67758;BMP180;54562;47.620;18.786;2022-12-07T08:55:35;98307.00;;;4.00
67758;BMP180;54562;47.620;18.786;2022-12-07T08:58:41;98305.80;;;4.10
67758;BMP180;54562;47.620;18.786;2022-12-07T09:01:46;98311.60;;;4.10
67758;BMP180;54562;47.620;18.786;2022-12-07T09:04:52;98305.20;;;4.16
67758;BMP180;54562;47.620;18.786;2022-12-07T09:08:01;98304.60;;;4.20
67758;BMP180;54562;47.620;18.786;2022-12-07T09:11:06;98302.40;;;4.30
67758;BMP180;54562;47.620;18.786;2022-12-07T09:14:11;98305.80;;;4.40
67758;BMP180;54562;47.620;18.786;2022-12-07T09:17:16;98301.40;;;4.40
67758;BMP180;54562;47.620;18.786;2022-12-07T09:20:21;98293.60;;;4.42
67758;BMP180;54562;47.620;18.786;2022-12-07T09:23:32;98292.60;;;4.50
67758;BMP180;54562;47.620;18.786;2022-12-07T09:26:37;98288.60;;;4.60
67758;BMP180;54562;47.620;18.786;2022-12-07T09:29:44;98289.20;;;4.60
67758;BMP180;54562;47.620;18.786;2022-12-07T09:32:50;98280.80;;;4.64
67758;BMP180;54562;47.620;18.786;2022-12-07T09:35:57;98275.60;;;4.70
67758;BMP180;54562;47.620;18.786;2022-12-07T09:39:02;98267.60;;;4.70
67758;BMP180;54562;47.620;18.786;2022-12-07T09:42:10;98261.60;;;4.70
67758;BMP180;54562;47.620;18.786;2022-12-07T09:45:28;98265.80;;;4.70
67758;BMP180;54562;47.620;18.786;2022-12-07T09:48:38;98263.80;;;4.70
67758;BMP180;54562;47.620;18.786;2022-12-07T09:51:44;98267.80;;;4.70
67758;BMP180;54562;47.620;18.786;2022-12-07T09:54:51;98271.80;;;4.70
67758;BMP180;54562;47.620;18.786;2022-12-07T09:57:56;98282.20;;;4.70
67758;BMP180;54562;47.620;18.786;2022-12-07T10:01:12;98284.00;;;4.70
67758;BMP180;54562;47.620;18.786;2022-12-07T10:04:20;98281.60;;;4.70
67758;BMP180;54562;47.620;18.786;2022-12-07T10:07:25;98279.20;;;4.70
67758;BMP180;54562;47.620;18.786;2022-12-07T10:10:34;98268.40;;;4.70
67758;BMP180;54562;47.620;18.786;2022-12-07T10:13:45;98262.80;;;4.70
67758;BMP180;54562;47.620;18.786;2022-12-07T10:16:53;98261.20;;;4.70
67758;BMP180;54562;47.620;18.786;2022-12-07T10:20:25;98246.60;;;4.68
67758;BMP180;54562;47.620;18.786;2022-12-07T10:23:30;98242.00;;;4.68
67758;BMP180;54562;47.620;18.786;2022-12-07T10:26:38;98251.20;;;4.62
67758;BMP180;54562;47.620;18.786;2022-12-07T10:29:50;98247.80;;;4.60
67758;BMP180;54562;47.620;18.786;2022-12-07T10:32:56;98252.00;;;4.60
67758;BMP180;54562;47.620;18.786;2022-12-07T10:36:15;98252.40;;;4.60
67758;BMP180;54562;47.620;18.786;2022-12-07T10:39:23;98255.60;;;4.60
67758;BMP180;54562;47.620;18.786;2022-12-07T10:42:30;98249.80;;;4.60
67758;BMP180;54562;47.620;18.786;2022-12-07T10:46:06;98237.40;;;4.60
67758;BMP180;54562;47.620;18.786;2022-12-07T10:49:44;98232.80;;;4.60
67758;BMP180;54562;47.620;18.786;2022-12-07T10:53:26;98234.00;;;4.62
67758;BMP180;54562;47.620;18.786;2022-12-07T10:57:04;98233.80;;;4.70
67758;BMP180;54562;47.620;18.786;2022-12-07T11:00:18;98234.00;;;4.90
67758;BMP180;54562;47.620;18.786;2022-12-07T11:03:39;98233.60;;;4.96
67758;BMP180;54562;47.620;18.786;2022-12-07T11:06:57;98235.20;;;5.08
67758;BMP180;54562;47.620;18.786;2022-12-07T11:10:14;98231.80;;;5.20
67758;BMP180;54562;47.620;18.786;2022-12-07T11:13:39;98228.40;;;5.20
67758;BMP180;54562;47.620;18.786;2022-12-07T11:16:56;98232.40;;;5.30
67758;BMP180;54562;47.620;18.786;2022-12-07T11:20:20;98233.20;;;5.30
67758;BMP180;54562;47.620;18.786;2022-12-07T11:23:43;98231.80;;;5.20
67758;BMP180;54562;47.620;18.786;2022-12-07T11:27:06;98233.40;;;5.20
67758;BMP180;54562;47.620;18.786;2022-12-07T11:30:21;98234.20;;;5.10
67758;BMP180;54562;47.620;18.786;2022-12-07T11:33:36;98238.00;;;5.10
67758;BMP180;54562;47.620;18.786;2022-12-07T11:36:49;98235.60;;;5.10
67758;BMP180;54562;47.620;18.786;2022-12-07T11:40:03;98234.00;;;5.10
67758;BMP180;54562;47.620;18.786;2022-12-07T11:43:20;98223.00;;;5.20
67758;BMP180;54562;47.620;18.786;2022-12-07T11:46:34;98214.00;;;5.40
67758;BMP180;54562;47.620;18.786;2022-12-07T11:49:51;98205.60;;;5.60
67758;BMP180;54562;47.620;18.786;2022-12-07T11:53:03;98213.00;;;5.70
67758;BMP180;54562;47.620;18.786;2022-12-07T11:56:12;98206.40;;;5.80
67758;BMP180;54562;47.620;18.786;2022-12-07T11:59:25;98200.00;;;5.90
67758;BMP180;54562;47.620;18.786;2022-12-07T12:02:41;98194.20;;;6.10
67758;BMP180;54562;47.620;18.786;2022-12-07T12:05:48;98187.20;;;6.22
67758;BMP180;54562;47.620;18.786;2022-12-07T12:09:01;98186.00;;;6.20
67758;BMP180;54562;47.620;18.786;2022-12-07T12:20:42;98174.20;;;6.30
67758;BMP180;54562;47.620;18.786;2022-12-07T12:23:54;98174.80;;;6.66
67758;BMP180;54562;47.620;18.786;2022-12-07T12:27:06;98174.00;;;6.60
67758;BMP180;54562;47.620;18.786;2022-12-07T12:30:31;98175.00;;;6.50
67758;BMP180;54562;47.620;18.786;2022-12-07T12:33:38;98167.80;;;6.30
67758;BMP180;54562;47.620;18.786;2022-12-07T12:36:48;98174.60;;;6.20
67758;BMP180;54562;47.620;18.786;2022-12-07T12:40:39;98177.80;;;6.00
67758;BMP180;54562;47.620;18.786;2022-12-07T12:43:53;98171.60;;;5.90
67758;BMP180;54562;47.620;18.786;2022-12-07T12:46:59;98171.60;;;5.80
67758;BMP180;54562;47.620;18.786;2022-12-07T12:50:20;98170.40;;;5.70
67758;BMP180;54562;47.620;18.786;2022-12-07T12:53:27;98171.00;;;5.70
67758;BMP180;54562;47.620;18.786;2022-12-07T12:56:44;98168.00;;;5.60
67758;BMP180;54562;47.620;18.786;2022-12-07T12:59:59;98172.20;;;5.60
67758;BMP180;54562;47.620;18.786;2022-12-07T13:03:27;98176.60;;;5.60
67758;BMP180;54562;47.620;18.786;2022-12-07T13:06:37;98189.20;;;5.90
67758;BMP180;54562;47.620;18.786;2022-12-07T13:09:45;98192.40;;;5.90
67758;BMP180;54562;47.620;18.786;2022-12-07T13:12:58;98191.40;;;5.80
67758;BMP180;54562;47.620;18.786;2022-12-07T13:16:41;98185.80;;;5.70
67758;BMP180;54562;47.620;18.786;2022-12-07T13:19:57;98183.60;;;5.70
67758;BMP180;54562;47.620;18.786;2022-12-07T13:23:05;98177.60;;;5.60
67758;BMP180;54562;47.620;18.786;2022-12-07T13:26:17;98181.80;;;5.60
67758;BMP180;54562;47.620;18.786;2022-12-07T13:29:22;98181.60;;;5.58
67758;BMP180;54562;47.620;18.786;2022-12-07T13:32:29;98179.00;;;5.50
67758;BMP180;54562;47.620;18.786;2022-12-07T13:35:38;98182.80;;;5.40
67758;BMP180;54562;47.620;18.786;2022-12-07T13:38:52;98192.40;;;5.30
67758;BMP180;54562;47.620;18.786;2022-12-07T13:41:59;98193.80;;;5.30
67758;BMP180;54562;47.620;18.786;2022-12-07T13:45:25;98199.00;;;5.20
67758;BMP180;54562;47.620;18.786;2022-12-07T13:48:52;98200.40;;;5.20
67758;BMP180;54562;47.620;18.786;2022-12-07T13:52:19;98209.20;;;5.10
67758;BMP180;54562;47.620;18.786;2022-12-07T13:55:24;98209.20;;;5.20
67758;BMP180;54562;47.620;18.786;2022-12-07T13:58:32;98206.20;;;5.30
67758;BMP180;54562;47.620;18.786;2022-12-07T14:01:38;98209.00;;;5.30
67758;BMP180;54562;47.620;18.786;2022-12-07T14:04:43;98208.80;;;5.30
67758;BMP180;54562;47.620;18.786;2022-12-07T14:07:57;98215.00;;;5.40
67758;BMP180;54562;47.620;18.786;2022-12-07T14:11:02;98209.60;;;5.60
67758;BMP180;54562;47.620;18.786;2022-12-07T14:14:12;98213.00;;;5.44
67758;BMP180;54562;47.620;18.786;2022-12-07T14:17:21;98212.60;;;5.32
67758;BMP180;54562;47.620;18.786;2022-12-07T14:20:33;98211.80;;;5.30
67758;BMP180;54562;47.620;18.786;2022-12-07T14:23:40;98215.60;;;5.20
67758;BMP180;54562;47.620;18.786;2022-12-07T14:26:45;98215.00;;;5.10
67758;BMP180;54562;47.620;18.786;2022-12-07T14:29:52;98211.80;;;5.00
67758;BMP180;54562;47.620;18.786;2022-12-07T14:33:00;98207.20;;;5.00
67758;BMP180;54562;47.620;18.786;2022-12-07T14:36:07;98205.20;;;4.90
67758;BMP180;54562;47.620;18.786;2022-12-07T14:39:13;98212.60;;;4.78
67758;BMP180;54562;47.620;18.786;2022-12-07T14:42:18;98213.40;;;4.70
67758;BMP180;54562;47.620;18.786;2022-12-07T14:45:24;98219.40;;;4.50
67758;BMP180;54562;47.620;18.786;2022-12-07T14:48:28;98221.40;;;4.40
67758;BMP180;54562;47.620;18.786;2022-12-07T14:51:54;98226.20;;;4.30
67758;BMP180;54562;47.620;18.786;2022-12-07T14:55:24;98229.60;;;4.20
67758;BMP180;54562;47.620;18.786;2022-12-07T14:58:29;98228.20;;;4.10
67758;BMP180;54562;47.620;18.786;2022-12-07T15:01:34;98223.20;;;3.94
67758;BMP180;54562;47.620;18.786;2022-12-07T15:04:39;98226.20;;;3.80
67758;BMP180;54562;47.620;18.786;2022-12-07T15:07:44;98225.40;;;3.70
67758;BMP180;54562;47.620;18.786;2022-12-07T15:10:49;98224.60;;;3.58
67758;BMP180;54562;47.620;18.786;2022-12-07T15:13:55;98230.60;;;3.40
67758;BMP180;54562;47.620;18.786;2022-12-07T15:17:16;98234.20;;;3.32
67758;BMP180;54562;47.620;18.786;2022-12-07T15:20:35;98235.80;;;3.20
67758;BMP180;54562;47.620;18.786;2022-12-07T15:23:40;98240.40;;;3.14
67758;BMP180;54562;47.620;18.786;2022-12-07T15:26:45;98237.60;;;3.10
67758;BMP180;54562;47.620;18.786;2022-12-07T15:29:51;98239.60;;;3.00
67758;BMP180;54562;47.620;18.786;2022-12-07T15:32:57;98246.80;;;2.90
67758;BMP180;54562;47.620;18.786;2022-12-07T15:36:02;98243.20;;;2.86
67758;BMP180;54562;47.620;18.786;2022-12-07T15:39:08;98249.00;;;2.80
67758;BMP180;54562;47.620;18.786;2022-12-07T15:42:18;98255.00;;;2.70
67758;BMP180;54562;47.620;18.786;2022-12-07T15:45:23;98262.40;;;2.70
67758;BMP180;54562;47.620;18.786;2022-12-07T15:48:28;98272.00;;;2.60
67758;BMP180;54562;47.620;18.786;2022-12-07T15:51:33;98263.40;;;2.56
67758;BMP180;54562;47.620;18.786;2022-12-07T15:54:38;98259.00;;;2.50
67758;BMP180;54562;47.620;18.786;2022-12-07T15:57:43;98258.80;;;2.42
67758;BMP180;54562;47.620;18.786;2022-12-07T16:00:48;98262.60;;;2.40
67758;BMP180;54562;47.620;18.786;2022-12-07T16:03:53;98258.00;;;2.40
67758;BMP180;54562;47.620;18.786;2022-12-07T16:06:58;98263.00;;;2.30
67758;BMP180;54562;47.620;18.786;2022-12-07T16:10:05;98261.80;;;2.30
67758;BMP180;54562;47.620;18.786;2022-12-07T16:13:10;98266.20;;;2.20
67758;BMP180;54562;47.620;18.786;2022-12-07T16:16:18;98263.80;;;2.20
67758;BMP180;54562;47.620;18.786;2022-12-07T16:19:23;98263.40;;;2.10
67758;BMP180;54562;47.620;18.786;2022-12-07T16:22:28;98258.00;;;2.10
67758;BMP180;54562;47.620;18.786;2022-12-07T16:25:41;98252.80;;;2.10
67758;BMP180;54562;47.620;18.786;2022-12-07T16:28:49;98258.20;;;2.00
67758;BMP180;54562;47.620;18.786;2022-12-07T16:31:55;98255.80;;;2.00
67758;BMP180;54562;47.620;18.786;2022-12-07T16:35:00;98258.60;;;2.00
67758;BMP180;54562;47.620;18.786;2022-12-07T16:38:06;98259.40;;;1.90
67758;BMP180;54562;47.620;18.786;2022-12-07T16:41:11;98258.60;;;1.90
67758;BMP180;54562;47.620;18.786;2022-12-07T16:44:16;98260.20;;;1.80
67758;BMP180;54562;47.620;18.786;2022-12-07T16:47:21;98255.20;;;1.72
67758;BMP180;54562;47.620;18.786;2022-12-07T16:50:29;98252.20;;;1.70
67758;BMP180;54562;47.620;18.786;2022-12-07T16:53:34;98255.40;;;1.70
67758;BMP180;54562;47.620;18.786;2022-12-07T16:56:40;98253.00;;;1.70
67758;BMP180;54562;47.620;18.786;2022-12-07T16:59:46;98250.40;;;1.60
67758;BMP180;54562;47.620;18.786;2022-12-07T17:02:51;98253.60;;;1.60
67758;BMP180;54562;47.620;18.786;2022-12-07T17:05:56;98249.00;;;1.60
67758;BMP180;54562;47.620;18.786;2022-12-07T17:09:01;98248.80;;;1.60
67758;BMP180;54562;47.620;18.786;2022-12-07T17:12:08;98248.20;;;1.60
67758;BMP180;54562;47.620;18.786;2022-12-07T17:15:13;98250.00;;;1.60
67758;BMP180;54562;47.620;18.786;2022-12-07T17:18:27;98245.80;;;1.60
67758;BMP180;54562;47.620;18.786;2022-12-07T17:21:33;98252.00;;;1.58
67758;BMP180;54562;47.620;18.786;2022-12-07T17:24:38;98257.40;;;1.50
67758;BMP180;54562;47.620;18.786;2022-12-07T17:27:44;98256.40;;;1.50
67758;BMP180;54562;47.620;18.786;2022-12-07T17:30:50;98257.20;;;1.44
67758;BMP180;54562;47.620;18.786;2022-12-07T17:33:57;98258.80;;;1.40
67758;BMP180;54562;47.620;18.786;2022-12-07T17:37:04;98262.00;;;1.36
67758;BMP180;54562;47.620;18.786;2022-12-07T17:43:16;98266.40;;;1.30
67758;BMP180;54562;47.620;18.786;2022-12-07T17:46:21;98271.40;;;1.30
67758;BMP180;54562;47.620;18.786;2022-12-07T17:49:27;98270.40;;;1.30
67758;BMP180;54562;47.620;18.786;2022-12-07T17:52:36;98269.60;;;1.20
67758;BMP180;54562;47.620;18.786;2022-12-07T17:55:59;98274.60;;;1.20
67758;BMP180;54562;47.620;18.786;2022-12-07T17:59:25;98272.20;;;1.20
67758;BMP180;54562;47.620;18.786;2022-12-07T18:02:30;98277.60;;;1.20
67758;BMP180;54562;47.620;18.786;2022-12-07T18:05:36;98276.40;;;1.12
67758;BMP180;54562;47.620;18.786;2022-12-07T18:08:41;98273.40;;;1.10
67758;BMP180;54562;47.620;18.786;2022-12-07T18:11:46;98280.00;;;1.06
67758;BMP180;54562;47.620;18.786;2022-12-07T18:14:51;98288.60;;;1.00
67758;BMP180;54562;47.620;18.786;2022-12-07T18:17:58;98285.20;;;1.00
67758;BMP180;54562;47.620;18.786;2022-12-07T18:21:07;98280.00;;;0.92
67758;BMP180;54562;47.620;18.786;2022-12-07T18:24:15;98286.00;;;0.90